createdAt,value
2023-02-19T00:01:31.227Z,9.00
2023-02-19T00:04:07.377Z,9.00
2023-02-19T00:06:35.855Z,9.00
2023-02-19T00:09:04.074Z,9.00
2023-02-19T00:11:33.409Z,9.00
2023-02-19T00:14:01.868Z,9.00
2023-02-19T00:16:34.579Z,9.10
2023-02-19T00:19:02.972Z,9.10
2023-02-19T00:21:30.622Z,9.10
2023-02-19T00:24:00.048Z,9.10
2023-02-19T00:26:27.134Z,9.10
2023-02-19T00:28:57.288Z,9.10
2023-02-19T00:31:32.516Z,9.10
2023-02-19T00:34:01.582Z,9.10
2023-02-19T00:36:29.058Z,9.10
2023-02-19T00:38:55.829Z,9.10
2023-02-19T00:41:24.175Z,9.10
2023-02-19T00:43:52.964Z,9.10
2023-02-19T00:46:25.408Z,9.10
2023-02-19T00:48:52.856Z,9.10
2023-02-19T00:51:21.889Z,9.10
2023-02-19T00:53:49.374Z,9.10
2023-02-19T00:56:16.557Z,9.10
2023-02-19T00:58:43.334Z,9.10
2023-02-19T01:01:10.932Z,9.10
2023-02-19T01:03:39.716Z,9.10
2023-02-19T01:06:08.597Z,9.10
2023-02-19T01:08:35.590Z,9.00
2023-02-19T01:11:03.682Z,9.00
2023-02-19T01:13:30.990Z,9.00
2023-02-19T01:16:24.821Z,9.00
2023-02-19T01:18:51.746Z,9.00
2023-02-19T01:21:24.360Z,9.00
2023-02-19T01:23:52.696Z,9.00
2023-02-19T01:26:21.897Z,9.00
2023-02-19T01:28:49.302Z,9.00
2023-02-19T01:31:18.694Z,9.00
2023-02-19T01:33:46.926Z,9.00
2023-02-19T01:36:14.809Z,9.00
2023-02-19T01:38:41.889Z,9.00
2023-02-19T01:41:11.575Z,9.00
2023-02-19T01:44:13.858Z,9.00
2023-02-19T01:46:42.526Z,9.00
2023-02-19T01:49:14.798Z,9.00
2023-02-19T01:51:46.258Z,9.00
2023-02-19T01:54:16.445Z,9.00
2023-02-19T01:56:46.002Z,9.00
2023-02-19T01:59:13.105Z,9.00
2023-02-19T02:01:41.206Z,9.00
2023-02-19T02:04:11.037Z,9.00
2023-02-19T02:06:54.150Z,9.00
2023-02-19T02:09:45.479Z,9.00
2023-02-19T02:12:12.887Z,9.00
2023-02-19T02:14:43.349Z,9.00
2023-02-19T02:17:18.834Z,9.00
2023-02-19T02:20:22.984Z,9.10
2023-02-19T02:23:10.227Z,9.10
2023-02-19T02:25:55.310Z,9.10
2023-02-19T02:28:37.442Z,9.10
2023-02-19T02:31:17.026Z,9.10
2023-02-19T02:33:57.184Z,9.10
2023-02-19T02:36:29.003Z,9.10
2023-02-19T02:38:58.331Z,9.10
2023-02-19T02:41:25.669Z,9.10
2023-02-19T02:43:52.384Z,9.20
2023-02-19T02:46:28.076Z,9.20
2023-02-19T02:48:58.463Z,9.20
2023-02-19T02:51:26.970Z,9.20
2023-02-19T02:54:14.075Z,9.20
2023-02-19T02:56:42.792Z,9.20
2023-02-19T02:59:12.421Z,9.30
2023-02-19T03:02:00.781Z,9.30
2023-02-19T03:04:30.272Z,9.30
2023-02-19T03:07:01.540Z,9.30
2023-02-19T03:09:48.159Z,9.30
2023-02-19T03:12:37.713Z,9.30
2023-02-19T03:15:28.333Z,9.30
2023-02-19T03:18:20.825Z,9.30
2023-02-19T03:20:51.543Z,9.30
2023-02-19T03:23:20.508Z,9.30
2023-02-19T03:26:03.330Z,9.30
2023-02-19T03:28:54.033Z,9.40
2023-02-19T03:31:23.956Z,9.40
2023-02-19T03:33:57.698Z,9.40
2023-02-19T03:36:28.658Z,9.40
2023-02-19T03:39:00.947Z,9.40
2023-02-19T03:41:39.286Z,9.40
2023-02-19T03:44:18.012Z,9.40
2023-02-19T03:47:03.657Z,9.40
2023-02-19T03:49:49.099Z,9.40
2023-02-19T03:52:52.770Z,9.40
2023-02-19T03:55:32.759Z,9.40
2023-02-19T03:58:13.349Z,9.30
2023-02-19T04:01:02.535Z,9.40
2023-02-19T04:04:09.172Z,9.30
2023-02-19T04:06:37.772Z,9.20
2023-02-19T04:09:09.521Z,9.20
2023-02-19T04:11:38.106Z,9.20
2023-02-19T04:14:22.701Z,9.20
2023-02-19T04:16:58.215Z,9.30
2023-02-19T04:19:27.185Z,9.30
2023-02-19T04:21:56.295Z,9.30
2023-02-19T04:24:38.541Z,9.20
2023-02-19T04:27:06.480Z,9.30
2023-02-19T04:29:33.240Z,9.30
2023-02-19T04:31:59.979Z,9.40
2023-02-19T04:34:26.652Z,9.40
2023-02-19T04:36:53.372Z,9.40
2023-02-19T04:39:20.115Z,9.50
2023-02-19T04:41:46.819Z,9.50
2023-02-19T04:44:13.517Z,9.50
2023-02-19T04:46:43.107Z,9.50
2023-02-19T04:49:09.965Z,9.50
2023-02-19T04:51:36.775Z,9.50
2023-02-19T04:54:03.641Z,9.50
2023-02-19T04:56:30.347Z,9.50
2023-02-19T04:58:57.366Z,9.50
2023-02-19T05:01:24.958Z,9.50
2023-02-19T05:03:52.634Z,9.50
2023-02-19T05:06:19.360Z,9.50
2023-02-19T05:08:46.072Z,9.50
2023-02-19T05:11:13.328Z,9.50
2023-02-19T05:13:40.756Z,9.50
2023-02-19T05:16:15.870Z,9.50
2023-02-19T05:18:43.970Z,9.40
2023-02-19T05:21:12.188Z,9.40
2023-02-19T05:23:39.658Z,9.40
2023-02-19T05:26:17.137Z,9.40
2023-02-19T05:28:45.645Z,9.40
2023-02-19T05:31:14.175Z,9.40
2023-02-19T05:33:42.980Z,9.40
2023-02-19T05:36:12.200Z,8.90
2023-02-19T05:38:39.771Z,8.30
2023-02-19T05:41:23.661Z,7.90
2023-02-19T05:43:50.814Z,7.70
2023-02-19T05:46:20.434Z,7.40
2023-02-19T05:48:48.491Z,7.30
2023-02-19T05:51:17.721Z,7.20
2023-02-19T05:53:45.639Z,7.10
2023-02-19T05:56:34.722Z,7.10
2023-02-19T05:59:14.939Z,7.00
2023-02-19T06:01:42.039Z,7.00
2023-02-19T06:04:10.756Z,7.00
2023-02-19T06:06:37.738Z,7.00
2023-02-19T06:09:05.739Z,6.90
2023-02-19T06:11:32.887Z,6.90
2023-02-19T06:13:59.685Z,6.80
2023-02-19T06:16:26.620Z,6.80
2023-02-19T06:18:53.483Z,6.70
2023-02-19T06:21:20.598Z,6.70
2023-02-19T06:23:47.730Z,6.60
2023-02-19T06:26:18.272Z,6.60
2023-02-19T06:28:46.071Z,6.70
2023-02-19T06:31:13.935Z,6.60
2023-02-19T06:33:41.609Z,6.50
2023-02-19T06:36:12.153Z,6.40
2023-02-19T06:38:39.552Z,6.40
2023-02-19T06:41:07.495Z,6.50
2023-02-19T06:43:35.135Z,6.40
2023-02-19T06:46:03.733Z,6.40
2023-02-19T06:48:31.867Z,6.40
2023-02-19T06:50:59.042Z,6.40
2023-02-19T06:53:26.120Z,6.40
2023-02-19T06:55:59.871Z,6.40
2023-02-19T06:58:27.413Z,6.40
2023-02-19T07:00:54.456Z,6.30
2023-02-19T07:03:21.689Z,6.20
2023-02-19T07:05:49.073Z,6.20
2023-02-19T07:08:17.328Z,6.20
2023-02-19T07:10:57.590Z,6.20
2023-02-19T07:13:26.703Z,6.20
2023-02-19T07:15:59.777Z,6.20
2023-02-19T07:18:26.522Z,6.20
2023-02-19T07:20:53.269Z,6.20
2023-02-19T07:23:20.095Z,6.20
2023-02-19T07:25:46.778Z,6.20
2023-02-19T07:28:13.431Z,6.20
2023-02-19T07:33:10.272Z,6.10
2023-02-19T07:35:37.172Z,6.10
2023-02-19T07:38:03.958Z,6.20
2023-02-19T07:40:30.723Z,6.10
2023-02-19T07:42:59.502Z,6.00
2023-02-19T07:45:26.232Z,5.90
2023-02-19T07:47:52.993Z,5.90
2023-02-19T07:50:19.707Z,5.90
2023-02-19T07:52:46.405Z,5.90
2023-02-19T07:55:13.158Z,5.90
2023-02-19T07:57:40.016Z,5.90
2023-02-19T08:00:08.993Z,5.90
2023-02-19T08:02:54.365Z,5.90
2023-02-19T08:05:21.021Z,5.90
2023-02-19T08:07:47.731Z,5.90
2023-02-19T08:10:53.050Z,5.90
2023-02-19T08:13:19.811Z,5.90
2023-02-19T08:15:46.968Z,5.90
2023-02-19T08:18:14.980Z,5.90
2023-02-19T08:20:41.783Z,5.90
2023-02-19T08:23:09.454Z,5.90
2023-02-19T08:25:36.522Z,5.90
2023-02-19T08:28:03.570Z,6.00
2023-02-19T08:30:31.755Z,5.90
2023-02-19T08:33:02.091Z,5.80
2023-02-19T08:35:29.399Z,5.70
2023-02-19T08:37:57.477Z,5.60
2023-02-19T08:40:27.588Z,5.60
2023-02-19T08:42:54.286Z,5.60
2023-02-19T08:45:21.303Z,5.60
2023-02-19T08:47:48.019Z,5.70
2023-02-19T08:50:14.751Z,5.70
2023-02-19T08:52:41.469Z,5.80
2023-02-19T08:55:08.376Z,5.80
2023-02-19T08:57:38.275Z,5.80
2023-02-19T09:00:06.831Z,5.80
2023-02-19T09:02:33.763Z,5.80
2023-02-19T09:05:01.042Z,5.80
2023-02-19T09:07:28.270Z,5.80
2023-02-19T09:09:55.081Z,5.90
2023-02-19T09:12:21.937Z,6.00
2023-02-19T09:17:15.824Z,6.20
2023-02-19T09:19:42.695Z,6.30
2023-02-19T09:22:09.848Z,6.40
2023-02-19T09:24:36.546Z,6.40
2023-02-19T09:27:03.661Z,6.50
2023-02-19T09:29:30.793Z,6.70
2023-02-19T09:31:59.067Z,6.80
2023-02-19T09:34:27.724Z,7.00
2023-02-19T09:36:55.335Z,7.10
2023-02-19T09:39:22.094Z,7.30
2023-02-19T09:42:10.195Z,7.40
2023-02-19T09:44:40.245Z,7.50
2023-02-19T09:47:18.214Z,7.50
2023-02-19T09:49:52.102Z,7.60
2023-02-19T09:52:18.784Z,7.60
2023-02-19T09:54:46.849Z,7.60
2023-02-19T09:57:19.372Z,7.50
2023-02-19T09:59:47.997Z,7.60
2023-02-19T10:02:23.407Z,7.50
2023-02-19T10:04:51.482Z,7.50
2023-02-19T10:07:41.687Z,7.40
2023-02-19T10:10:24.830Z,7.30
2023-02-19T10:12:55.446Z,7.30
2023-02-19T10:15:31.066Z,7.30
2023-02-19T10:17:58.118Z,7.50
2023-02-19T10:20:26.716Z,7.80
2023-02-19T10:23:05.999Z,8.10
2023-02-19T10:25:34.687Z,8.60
2023-02-19T10:28:02.479Z,9.30
2023-02-19T10:30:32.205Z,9.90
2023-02-19T10:33:09.759Z,10.50
2023-02-19T10:35:51.139Z,11.00
2023-02-19T10:38:20.443Z,11.20
2023-02-19T10:40:48.151Z,11.50
2023-02-19T10:43:31.111Z,11.70
2023-02-19T10:45:59.900Z,12.00
2023-02-19T10:48:36.888Z,11.90
2023-02-19T10:51:08.265Z,12.20
2023-02-19T10:53:41.512Z,12.20
2023-02-19T10:56:12.408Z,11.30
2023-02-19T10:58:42.356Z,10.80
2023-02-19T11:01:19.497Z,10.40
2023-02-19T11:03:48.266Z,9.90
2023-02-19T11:06:17.433Z,9.60
2023-02-19T11:08:57.323Z,9.30
2023-02-19T11:11:39.077Z,9.10
2023-02-19T11:14:18.543Z,9.00
2023-02-19T11:16:56.419Z,8.90
2023-02-19T11:19:27.330Z,8.90
2023-02-19T11:21:55.191Z,8.80
2023-02-19T11:24:37.463Z,8.90
2023-02-19T11:27:14.917Z,9.10
2023-02-19T11:29:41.656Z,9.50
2023-02-19T11:32:20.763Z,9.50
2023-02-19T11:34:48.336Z,9.60
2023-02-19T11:37:21.033Z,9.50
2023-02-19T11:39:50.162Z,9.40
2023-02-19T11:42:58.636Z,9.30
2023-02-19T11:45:38.049Z,9.30
2023-02-19T11:48:29.597Z,9.30
2023-02-19T11:51:23.837Z,9.30
2023-02-19T11:54:19.589Z,9.40
2023-02-19T11:56:51.978Z,9.40
2023-02-19T11:59:51.436Z,9.30
2023-02-19T12:02:21.182Z,9.60
2023-02-19T12:05:08.266Z,9.60
2023-02-19T12:08:02.560Z,10.10
2023-02-19T12:10:35.206Z,10.90
2023-02-19T12:13:31.349Z,11.30
2023-02-19T12:16:07.422Z,10.80
2023-02-19T12:18:52.408Z,10.40
2023-02-19T12:21:29.730Z,10.10
2023-02-19T12:24:18.073Z,10.00
2023-02-19T12:27:05.147Z,10.10
2023-02-19T12:29:43.826Z,10.60
2023-02-19T12:32:39.774Z,10.80
2023-02-19T12:35:33.981Z,10.60
2023-02-19T12:38:17.130Z,10.30
2023-02-19T12:40:49.138Z,10.20
2023-02-19T12:43:23.645Z,10.00
2023-02-19T12:46:07.333Z,9.90
2023-02-19T12:48:39.992Z,9.80
2023-02-19T12:51:31.326Z,9.60
2023-02-19T12:53:58.134Z,9.40
2023-02-19T12:56:37.048Z,9.20
2023-02-19T12:59:10.256Z,9.30
2023-02-19T13:01:51.154Z,9.80
2023-02-19T13:04:34.080Z,9.80
2023-02-19T13:07:13.402Z,9.60
2023-02-19T13:09:44.738Z,9.30
2023-02-19T13:12:21.453Z,9.10
2023-02-19T13:15:14.017Z,9.00
2023-02-19T13:17:48.965Z,9.00
2023-02-19T13:20:27.459Z,9.10
2023-02-19T13:23:24.668Z,9.30
2023-02-19T13:26:15.899Z,9.70
2023-02-19T13:28:42.550Z,10.30
2023-02-19T13:31:28.101Z,10.50
2023-02-19T13:34:22.095Z,10.30
2023-02-19T13:36:49.547Z,10.00
2023-02-19T13:39:19.532Z,9.80
2023-02-19T13:41:54.427Z,9.80
2023-02-19T13:44:25.751Z,9.80
2023-02-19T13:46:52.653Z,9.60
2023-02-19T13:49:28.013Z,9.40
2023-02-19T13:51:59.535Z,9.40
2023-02-19T13:54:36.024Z,9.30
2023-02-19T13:57:24.549Z,9.30
2023-02-19T13:59:55.263Z,9.30
2023-02-19T14:02:21.964Z,9.20
2023-02-19T14:04:59.993Z,9.10
2023-02-19T14:07:26.719Z,9.00
2023-02-19T14:09:54.440Z,8.90
2023-02-19T14:12:30.708Z,8.80
2023-02-19T14:14:57.908Z,8.80
2023-02-19T14:17:43.671Z,8.70
2023-02-19T14:20:11.599Z,8.70
2023-02-19T14:22:52.124Z,8.70
2023-02-19T14:25:30.608Z,8.70
2023-02-19T14:28:03.232Z,8.70
2023-02-19T14:30:34.962Z,8.90
2023-02-19T14:33:10.607Z,8.90
2023-02-19T14:35:44.723Z,8.90
2023-02-19T14:38:20.142Z,8.80
2023-02-19T14:40:48.582Z,8.70
2023-02-19T14:43:17.832Z,8.60
2023-02-19T14:45:53.286Z,8.40
2023-02-19T14:48:43.567Z,8.30
2023-02-19T14:51:23.068Z,8.30
2023-02-19T14:53:51.074Z,8.40
2023-02-19T14:56:31.760Z,8.50
2023-02-19T14:59:13.956Z,8.50
2023-02-19T15:01:41.018Z,8.50
2023-02-19T15:04:31.275Z,8.60
2023-02-19T15:07:02.280Z,8.50
2023-02-19T15:09:33.578Z,8.50
2023-02-19T15:12:02.798Z,8.60
2023-02-19T15:14:30.802Z,8.80
2023-02-19T15:17:05.556Z,8.90
2023-02-19T15:19:39.565Z,9.00
2023-02-19T15:22:06.551Z,9.00
2023-02-19T15:24:33.594Z,8.80
2023-02-19T15:27:00.312Z,8.70
2023-02-19T15:29:28.670Z,8.70
2023-02-19T15:32:00.529Z,8.60
2023-02-19T15:34:32.543Z,8.60
2023-02-19T15:37:07.087Z,8.40
2023-02-19T15:39:54.773Z,8.50
2023-02-19T15:42:25.508Z,8.40
2023-02-19T15:45:02.907Z,8.30
2023-02-19T15:48:03.214Z,8.40
2023-02-19T15:50:35.898Z,8.30
2023-02-19T15:53:17.596Z,8.20
2023-02-19T15:56:08.065Z,8.20
2023-02-19T15:59:00.502Z,8.10
2023-02-19T16:01:29.739Z,8.10
2023-02-19T16:03:57.271Z,8.00
2023-02-19T16:06:25.712Z,8.00
2023-02-19T16:08:52.385Z,7.90
2023-02-19T16:11:36.869Z,7.90
2023-02-19T16:14:24.496Z,7.90
2023-02-19T16:16:55.167Z,7.90
2023-02-19T16:19:32.408Z,7.90
2023-02-19T16:22:00.715Z,7.90
2023-02-19T16:24:31.870Z,7.80
2023-02-19T16:26:59.153Z,7.90
2023-02-19T16:29:31.657Z,7.90
2023-02-19T16:32:04.347Z,7.80
2023-02-19T16:34:38.606Z,7.80
2023-02-19T16:37:31.347Z,7.80
2023-02-19T16:40:07.248Z,7.70
2023-02-19T16:42:58.275Z,7.70
2023-02-19T16:45:27.408Z,7.70
2023-02-19T16:47:54.324Z,7.60
2023-02-19T16:50:24.356Z,7.60
2023-02-19T16:53:00.587Z,7.60
2023-02-19T16:55:28.921Z,7.50
2023-02-19T16:57:55.750Z,7.60
2023-02-19T17:00:28.482Z,7.60
2023-02-19T17:02:58.537Z,7.60
2023-02-19T17:05:27.810Z,7.60
2023-02-19T17:07:54.620Z,7.60
2023-02-19T17:10:26.938Z,7.60
2023-02-19T17:12:55.730Z,7.60
2023-02-19T17:15:23.299Z,7.50
2023-02-19T17:17:50.099Z,7.50
2023-02-19T17:20:28.075Z,7.40
2023-02-19T17:22:55.635Z,7.40
2023-02-19T17:25:23.211Z,7.40
2023-02-19T17:27:49.991Z,7.40
2023-02-19T17:30:30.268Z,7.30
2023-02-19T17:32:57.007Z,7.30
2023-02-19T17:35:23.820Z,7.30
2023-02-19T17:37:52.992Z,7.30
2023-02-19T17:40:31.907Z,7.30
2023-02-19T17:42:59.309Z,7.30
2023-02-19T17:45:26.018Z,7.30
2023-02-19T17:47:53.153Z,7.30
2023-02-19T17:50:27.267Z,7.30
2023-02-19T17:55:21.305Z,7.20
2023-02-19T17:57:50.275Z,7.10
2023-02-19T18:00:19.705Z,7.10
2023-02-19T18:02:46.572Z,7.20
2023-02-19T18:05:13.777Z,7.20
2023-02-19T18:07:40.808Z,7.20
2023-02-19T18:10:08.546Z,7.20
2023-02-19T18:12:35.546Z,7.10
2023-02-19T18:15:02.342Z,7.10
2023-02-19T18:17:29.101Z,7.10
2023-02-19T18:19:55.823Z,7.10
2023-02-19T18:22:22.649Z,7.10
2023-02-19T18:24:53.079Z,7.20
2023-02-19T18:27:20.440Z,7.20
2023-02-19T18:29:54.844Z,7.20
2023-02-19T18:32:23.647Z,7.20
2023-02-19T18:34:51.884Z,7.20
2023-02-19T18:37:19.236Z,7.20
2023-02-19T18:39:46.375Z,7.20
2023-02-19T18:42:15.202Z,7.20
2023-02-19T18:44:42.049Z,7.20
2023-02-19T18:47:11.431Z,7.20
2023-02-19T18:49:38.634Z,7.20
2023-02-19T18:52:05.989Z,7.20
2023-02-19T18:54:33.145Z,7.20
2023-02-19T18:57:03.775Z,7.20
2023-02-19T18:59:31.406Z,7.20
2023-02-19T19:01:58.196Z,7.20
2023-02-19T19:04:24.970Z,7.30
2023-02-19T19:09:19.042Z,7.20
2023-02-19T19:11:46.598Z,7.20
2023-02-19T19:14:13.396Z,7.20
2023-02-19T19:16:40.679Z,7.20
2023-02-19T19:19:07.725Z,7.10
2023-02-19T19:21:34.463Z,7.10
2023-02-19T19:24:01.429Z,7.00
2023-02-19T19:26:29.684Z,7.00
2023-02-19T19:28:56.423Z,7.10
2023-02-19T19:31:24.946Z,7.00
2023-02-19T19:33:52.332Z,7.00
2023-02-19T19:36:21.512Z,7.00
2023-02-19T19:38:49.059Z,7.00
2023-02-19T19:41:17.536Z,7.00
2023-02-19T19:43:44.338Z,6.90
2023-02-19T19:46:11.374Z,6.90
2023-02-19T19:48:40.922Z,6.90
2023-02-19T19:51:08.101Z,6.90
2023-02-19T19:53:34.849Z,7.00
2023-02-19T19:56:01.581Z,7.00
2023-02-19T19:58:28.428Z,7.00
2023-02-19T20:00:55.215Z,7.00
2023-02-19T20:03:22.011Z,7.00
2023-02-19T20:05:51.973Z,7.00
2023-02-19T20:08:18.773Z,7.00
2023-02-19T20:10:45.975Z,7.00
2023-02-19T20:13:17.334Z,7.00
2023-02-19T20:15:44.356Z,6.90
2023-02-19T20:18:11.299Z,7.00
2023-02-19T20:20:38.123Z,7.00
2023-02-19T20:23:06.205Z,7.00
2023-02-19T20:25:32.989Z,7.00
2023-02-19T20:27:59.723Z,6.90
2023-02-19T20:30:26.510Z,6.90
2023-02-19T20:32:53.743Z,6.90
2023-02-19T20:35:20.928Z,6.90
2023-02-19T20:37:47.866Z,6.90
2023-02-19T20:40:18.032Z,6.90
2023-02-19T20:42:44.900Z,6.90
2023-02-19T20:45:12.189Z,6.90
2023-02-19T20:47:40.198Z,6.90
2023-02-19T20:50:08.242Z,6.90
2023-02-19T20:52:34.981Z,6.90
2023-02-19T20:55:01.789Z,6.90
2023-02-19T20:57:28.690Z,6.90
2023-02-19T20:59:55.470Z,6.90
2023-02-19T21:02:29.517Z,6.90
2023-02-19T21:04:57.705Z,6.80
2023-02-19T21:07:25.621Z,6.80
2023-02-19T21:09:52.901Z,6.80
2023-02-19T21:12:21.497Z,6.80
2023-02-19T21:14:48.285Z,6.90
2023-02-19T21:17:15.346Z,6.80
2023-02-19T21:19:42.169Z,6.80
2023-02-19T21:22:08.881Z,6.80
2023-02-19T21:24:35.740Z,6.80
2023-02-19T21:27:02.627Z,6.80
2023-02-19T21:29:29.410Z,6.80
2023-02-19T21:31:57.597Z,6.80
2023-02-19T21:34:29.544Z,6.90
2023-02-19T21:36:56.698Z,6.90
2023-02-19T21:39:25.443Z,6.80
2023-02-19T21:41:52.197Z,6.80
2023-02-19T21:44:20.989Z,6.80
2023-02-19T21:46:48.071Z,6.90
2023-02-19T21:49:14.888Z,6.80
2023-02-19T21:51:43.745Z,6.90
2023-02-19T21:54:19.219Z,6.90
2023-02-19T21:56:45.926Z,6.80
2023-02-19T21:59:13.053Z,6.90
2023-02-19T22:01:40.008Z,6.90
2023-02-19T22:04:07.914Z,6.90
2023-02-19T22:06:34.731Z,6.80
2023-02-19T22:09:01.996Z,6.90
2023-02-19T22:11:29.053Z,6.80
2023-02-19T22:16:23.813Z,6.80
2023-02-19T22:18:53.251Z,6.80
2023-02-19T22:21:21.376Z,6.80
2023-02-19T22:23:50.364Z,6.80
2023-02-19T22:26:23.709Z,6.80
2023-02-19T22:28:50.626Z,6.80
2023-02-19T22:31:19.454Z,6.80
2023-02-19T22:33:46.252Z,6.80
2023-02-19T22:36:21.790Z,6.80
2023-02-19T22:38:49.402Z,6.70
2023-02-19T22:41:17.563Z,6.70
2023-02-19T22:43:44.486Z,6.60
2023-02-19T22:46:15.641Z,6.60
2023-02-19T22:48:42.672Z,6.60
2023-02-19T22:51:13.134Z,6.60
2023-02-19T22:53:47.693Z,6.60
2023-02-19T22:56:15.804Z,6.70
2023-02-19T22:58:43.379Z,6.70
2023-02-19T23:01:11.786Z,6.70
2023-02-19T23:03:50.136Z,6.70
2023-02-19T23:06:18.202Z,6.60
2023-02-19T23:08:44.944Z,6.60
2023-02-19T23:11:13.249Z,6.60
2023-02-19T23:13:42.809Z,6.70
2023-02-19T23:16:09.821Z,6.70
2023-02-19T23:18:36.696Z,6.70
2023-02-19T23:21:03.524Z,6.70
2023-02-19T23:23:30.262Z,6.70
2023-02-19T23:25:57.018Z,6.60
2023-02-19T23:28:23.793Z,6.70
2023-02-19T23:30:50.687Z,6.70
2023-02-19T23:33:17.745Z,6.70
2023-02-19T23:35:44.578Z,6.60
2023-02-19T23:38:11.348Z,6.70
2023-02-19T23:40:38.110Z,6.60
2023-02-19T23:43:04.805Z,6.70
2023-02-19T23:45:31.552Z,6.60
2023-02-19T23:47:58.347Z,6.60
2023-02-19T23:50:25.154Z,6.60
2023-02-19T23:52:51.880Z,6.60
2023-02-19T23:55:18.675Z,6.60
2023-02-19T23:57:45.405Z,6.60
